QFA55 PANC-PAJN
Flight info
| Callsign | QFA55 |
|---|---|
| Flight time | 1h 20m |
| Altitude | 35000 |
| Route | NOEND4 NOEND JOH J501 YAK J541 SSR |
| Aircraft | B738/M-SDE2E3FGHIRWXY/LB1 |
Departure
| Time | 2026-04-26 10:53 |
|---|---|
| Airport | Ted Stevens Anchorage International Airport (PANC) |
Arrival
| Time | 2026-04-26 12:13 |
|---|---|
| Airport | Juneau International Airport (PAJN) |
| Time | Latitude | Longitude | Altitude | Speed | Heading |
|---|---|---|---|---|---|
| 2026-04-26 10:25 | 61.17573 | -149.98485 | 161 ft | 0 kts | 105° |
| 2026-04-26 10:43 | 61.17577 | -149.98513 | 161 ft | 3 kts | 105° |
| 2026-04-26 10:43 | 61.17584 | -149.98562 | 161 ft | 3 kts | 105° |
| 2026-04-26 10:43 | 61.17590 | -149.98610 | 161 ft | 3 kts | 105° |
| 2026-04-26 10:44 | 61.17596 | -149.98658 | 161 ft | 3 kts | 112° |
| 2026-04-26 10:44 | 61.17611 | -149.98694 | 161 ft | 3 kts | 152° |
| 2026-04-26 10:44 | 61.17633 | -149.98711 | 161 ft | 3 kts | 160° |
| 2026-04-26 10:44 | 61.17656 | -149.98728 | 161 ft | 3 kts | 160° |
| 2026-04-26 10:45 | 61.17669 | -149.98738 | 161 ft | 0 kts | 160° |
| 2026-04-26 10:46 | 61.17667 | -149.98737 | 161 ft | 1 kts | 160° |
| 2026-04-26 10:47 | 61.17641 | -149.98716 | 161 ft | 8 kts | 160° |
| 2026-04-26 10:47 | 61.17569 | -149.98663 | 161 ft | 12 kts | 161° |
| 2026-04-26 10:47 | 61.17480 | -149.98598 | 161 ft | 15 kts | 160° |
| 2026-04-26 10:47 | 61.17376 | -149.98615 | 161 ft | 15 kts | 211° |
| 2026-04-26 10:48 | 61.17288 | -149.98734 | 161 ft | 16 kts | 213° |
| 2026-04-26 10:48 | 61.17199 | -149.98889 | 161 ft | 17 kts | 233° |
| 2026-04-26 10:48 | 61.17137 | -149.99063 | 161 ft | 15 kts | 245° |
| 2026-04-26 10:48 | 61.17125 | -149.99277 | 161 ft | 16 kts | 270° |
| 2026-04-26 10:49 | 61.17125 | -149.99478 | 161 ft | 14 kts | 269° |
| 2026-04-26 10:49 | 61.17124 | -149.99616 | 161 ft | 0 kts | 270° |
| 2026-04-26 10:51 | 61.17124 | -149.99765 | 161 ft | 13 kts | 269° |
| 2026-04-26 10:51 | 61.17161 | -149.99876 | 161 ft | 9 kts | 340° |
| 2026-04-26 10:52 | 61.17168 | -149.99881 | 161 ft | 0 kts | 343° |
| 2026-04-26 10:52 | 61.17169 | -149.99881 | 161 ft | 1 kts | 343° |
| 2026-04-26 10:52 | 61.17279 | -149.99946 | 161 ft | 44 kts | 345° |
| 2026-04-26 10:52 | 61.17784 | -150.00227 | 161 ft | 105 kts | 345° |
| 2026-04-26 10:53 | 61.18663 | -150.00716 | 163 ft | 154 kts | 345° |
| 2026-04-26 10:53 | 61.19741 | -150.01307 | 616 ft | 157 kts | 342° |
| 2026-04-26 10:53 | 61.20761 | -150.02167 | 1168 ft | 166 kts | 328° |
| 2026-04-26 10:54 | 61.22747 | -150.05250 | 2183 ft | 189 kts | 320° |
| 2026-04-26 10:54 | 61.23862 | -150.06998 | 2560 ft | 215 kts | 323° |
| 2026-04-26 10:54 | 61.25160 | -150.08845 | 3094 ft | 233 kts | 326° |
| 2026-04-26 10:54 | 61.26533 | -150.10726 | 3885 ft | 240 kts | 327° |
| 2026-04-26 10:55 | 61.27990 | -150.12471 | 4714 ft | 244 kts | 341° |
| 2026-04-26 10:55 | 61.29674 | -150.12849 | 5509 ft | 248 kts | 11° |
| 2026-04-26 10:55 | 61.31249 | -150.11347 | 6282 ft | 249 kts | 44° |
| 2026-04-26 10:55 | 61.32084 | -150.09717 | 6866 ft | 250 kts | 47° |
| 2026-04-26 10:56 | 61.33693 | -150.06171 | 7957 ft | 254 kts | 50° |
| 2026-04-26 10:56 | 61.34844 | -150.03348 | 8706 ft | 258 kts | 61° |
| 2026-04-26 10:56 | 61.35397 | -149.99838 | 9407 ft | 257 kts | 91° |
| 2026-04-26 10:56 | 61.35017 | -149.96153 | 9810 ft | 270 kts | 123° |
| 2026-04-26 10:57 | 61.33834 | -149.93038 | 10327 ft | 282 kts | 133° |
| 2026-04-26 10:57 | 61.32437 | -149.89997 | 10709 ft | 299 kts | 136° |
| 2026-04-26 10:57 | 61.30922 | -149.86843 | 11091 ft | 316 kts | 136° |
| 2026-04-26 10:57 | 61.29373 | -149.83522 | 11733 ft | 323 kts | 135° |
| 2026-04-26 10:58 | 61.27840 | -149.80061 | 12485 ft | 328 kts | 130° |
| 2026-04-26 10:58 | 61.26629 | -149.76026 | 13280 ft | 333 kts | 116° |
| 2026-04-26 10:58 | 61.25895 | -149.71413 | 14031 ft | 340 kts | 108° |
| 2026-04-26 10:58 | 61.25271 | -149.66643 | 14793 ft | 344 kts | 107° |
| 2026-04-26 10:59 | 61.24666 | -149.61800 | 15562 ft | 349 kts | 107° |
| 2026-04-26 10:59 | 61.24114 | -149.56859 | 16339 ft | 354 kts | 104° |
| 2026-04-26 10:59 | 61.23636 | -149.51817 | 17098 ft | 358 kts | 103° |
| 2026-04-26 10:59 | 61.23170 | -149.46705 | 17854 ft | 363 kts | 103° |
| 2026-04-26 11:00 | 61.22676 | -149.41540 | 18583 ft | 367 kts | 104° |
| 2026-04-26 11:00 | 61.22147 | -149.36315 | 19266 ft | 373 kts | 104° |
| 2026-04-26 11:00 | 61.21618 | -149.31003 | 19921 ft | 379 kts | 103° |
| 2026-04-26 11:00 | 61.21105 | -149.25604 | 20555 ft | 385 kts | 103° |
| 2026-04-26 11:01 | 61.20591 | -149.20108 | 21172 ft | 391 kts | 103° |
| 2026-04-26 11:01 | 61.20065 | -149.14541 | 21767 ft | 396 kts | 103° |
| 2026-04-26 11:01 | 61.19519 | -149.08897 | 22349 ft | 402 kts | 103° |
| 2026-04-26 11:01 | 61.18958 | -149.03181 | 22916 ft | 407 kts | 103° |
| 2026-04-26 11:02 | 61.18389 | -148.97391 | 23467 ft | 412 kts | 103° |
| 2026-04-26 11:02 | 61.17805 | -148.91451 | 24007 ft | 418 kts | 103° |
| 2026-04-26 11:02 | 61.17222 | -148.85520 | 24527 ft | 422 kts | 103° |
| 2026-04-26 11:02 | 61.16629 | -148.79526 | 25033 ft | 427 kts | 103° |
| 2026-04-26 11:03 | 61.16232 | -148.75530 | 25354 ft | 430 kts | 103° |
| 2026-04-26 11:03 | 61.15413 | -148.67357 | 25976 ft | 436 kts | 103° |
| 2026-04-26 11:03 | 61.14999 | -148.63260 | 26273 ft | 439 kts | 103° |
| 2026-04-26 11:03 | 61.14156 | -148.54929 | 26858 ft | 445 kts | 103° |
| 2026-04-26 11:04 | 61.13649 | -148.50801 | 27105 ft | 448 kts | 109° |
| 2026-04-26 11:04 | 61.12479 | -148.44823 | 27486 ft | 450 kts | 119° |
| 2026-04-26 11:04 | 61.10847 | -148.39282 | 27860 ft | 452 kts | 127° |
| 2026-04-26 11:04 | 61.09063 | -148.33918 | 28259 ft | 455 kts | 127° |
| 2026-04-26 11:05 | 61.07235 | -148.28539 | 28619 ft | 459 kts | 128° |
| 2026-04-26 11:05 | 61.05381 | -148.23129 | 28956 ft | 463 kts | 128° |
| 2026-04-26 11:05 | 61.03518 | -148.17671 | 29268 ft | 468 kts | 128° |
| 2026-04-26 11:05 | 61.01647 | -148.12158 | 29559 ft | 472 kts | 127° |
| 2026-04-26 11:06 | 60.97803 | -148.00850 | 29710 ft | 489 kts | 128° |
| 2026-04-26 11:06 | 60.95838 | -147.95116 | 30030 ft | 489 kts | 128° |
| 2026-04-26 11:06 | 60.93873 | -147.89399 | 30359 ft | 489 kts | 128° |
| 2026-04-26 11:07 | 60.91907 | -147.83690 | 30675 ft | 490 kts | 128° |
| 2026-04-26 11:07 | 60.89910 | -147.77905 | 30977 ft | 490 kts | 128° |
| 2026-04-26 11:07 | 60.87933 | -147.72188 | 31258 ft | 491 kts | 128° |
| 2026-04-26 11:07 | 60.85950 | -147.66467 | 31526 ft | 492 kts | 128° |
| 2026-04-26 11:08 | 60.83965 | -147.60756 | 31802 ft | 492 kts | 128° |
| 2026-04-26 11:08 | 60.81975 | -147.55048 | 32088 ft | 492 kts | 128° |
| 2026-04-26 11:08 | 60.79981 | -147.49341 | 32353 ft | 492 kts | 128° |
| 2026-04-26 11:08 | 60.77985 | -147.43644 | 32619 ft | 492 kts | 128° |
| 2026-04-26 11:09 | 60.75986 | -147.37950 | 32882 ft | 493 kts | 129° |
| 2026-04-26 11:09 | 60.73988 | -147.32270 | 33149 ft | 492 kts | 129° |
| 2026-04-26 11:09 | 60.71984 | -147.26591 | 33411 ft | 492 kts | 129° |
| 2026-04-26 11:09 | 60.69983 | -147.20933 | 33649 ft | 492 kts | 129° |
| 2026-04-26 11:10 | 60.67977 | -147.15275 | 33891 ft | 492 kts | 129° |
| 2026-04-26 11:10 | 60.65971 | -147.09631 | 34136 ft | 492 kts | 129° |
| 2026-04-26 11:10 | 60.63961 | -147.03989 | 34391 ft | 491 kts | 129° |
| 2026-04-26 11:10 | 60.61955 | -146.98371 | 34629 ft | 490 kts | 129° |
| 2026-04-26 11:11 | 60.59949 | -146.92768 | 34865 ft | 490 kts | 129° |
| 2026-04-26 11:11 | 60.57943 | -146.87177 | 35099 ft | 489 kts | 129° |
| 2026-04-26 11:11 | 60.53908 | -146.75980 | 35184 ft | 493 kts | 129° |
| 2026-04-26 11:12 | 60.49878 | -146.64692 | 35187 ft | 495 kts | 124° |
| 2026-04-26 11:12 | 60.47213 | -146.51848 | 35205 ft | 496 kts | 104° |
| 2026-04-26 11:13 | 60.45670 | -146.38272 | 35191 ft | 493 kts | 103° |
| 2026-04-26 11:13 | 60.44198 | -146.24733 | 35190 ft | 491 kts | 103° |
| 2026-04-26 11:14 | 60.42661 | -146.11268 | 35188 ft | 491 kts | 104° |
| 2026-04-26 11:14 | 60.41100 | -145.97711 | 35186 ft | 492 kts | 104° |
| 2026-04-26 11:15 | 60.39556 | -145.84248 | 35183 ft | 491 kts | 104° |
| 2026-04-26 11:15 | 60.37990 | -145.70838 | 35181 ft | 490 kts | 104° |
| 2026-04-26 11:16 | 60.36413 | -145.57467 | 35180 ft | 489 kts | 104° |
| 2026-04-26 11:16 | 60.34831 | -145.44134 | 35179 ft | 487 kts | 105° |
| 2026-04-26 11:17 | 60.33236 | -145.30865 | 35176 ft | 486 kts | 105° |
| 2026-04-26 11:17 | 60.31636 | -145.17622 | 35177 ft | 485 kts | 105° |
| 2026-04-26 11:18 | 60.30025 | -145.04435 | 35177 ft | 484 kts | 105° |
| 2026-04-26 11:18 | 60.28403 | -144.91295 | 35176 ft | 482 kts | 105° |
| 2026-04-26 11:19 | 60.26773 | -144.78208 | 35176 ft | 481 kts | 106° |
| 2026-04-26 11:19 | 60.25134 | -144.65141 | 35176 ft | 481 kts | 106° |
| 2026-04-26 11:20 | 60.23755 | -144.54221 | 35175 ft | 480 kts | 106° |
| 2026-04-26 11:20 | 60.21822 | -144.39095 | 35173 ft | 480 kts | 106° |
| 2026-04-26 11:21 | 60.20146 | -144.26090 | 35172 ft | 481 kts | 106° |
| 2026-04-26 11:21 | 60.18445 | -144.13002 | 35171 ft | 481 kts | 106° |
| 2026-04-26 11:22 | 60.16741 | -144.00010 | 35171 ft | 481 kts | 107° |
| 2026-04-26 11:22 | 60.15027 | -143.87046 | 35169 ft | 480 kts | 107° |
| 2026-04-26 11:23 | 60.13301 | -143.74097 | 35168 ft | 480 kts | 107° |
| 2026-04-26 11:23 | 60.11564 | -143.61175 | 35166 ft | 480 kts | 107° |
| 2026-04-26 11:24 | 60.09818 | -143.48299 | 35165 ft | 478 kts | 107° |
| 2026-04-26 11:24 | 60.08063 | -143.35460 | 35164 ft | 477 kts | 108° |
| 2026-04-26 11:25 | 60.06302 | -143.22677 | 35163 ft | 475 kts | 108° |
| 2026-04-26 11:25 | 60.04533 | -143.09943 | 35166 ft | 474 kts | 108° |
| 2026-04-26 11:26 | 60.02759 | -142.97269 | 35161 ft | 473 kts | 108° |
| 2026-04-26 11:26 | 60.00975 | -142.84631 | 35159 ft | 472 kts | 108° |
| 2026-04-26 11:27 | 59.99185 | -142.72043 | 35158 ft | 471 kts | 108° |
| 2026-04-26 11:27 | 59.97378 | -142.59445 | 35158 ft | 472 kts | 109° |
| 2026-04-26 11:28 | 59.95559 | -142.46845 | 35157 ft | 472 kts | 109° |
| 2026-04-26 11:28 | 59.93730 | -142.34280 | 35156 ft | 471 kts | 109° |
| 2026-04-26 11:29 | 59.91884 | -142.21692 | 35156 ft | 470 kts | 109° |
| 2026-04-26 11:29 | 59.90040 | -142.09215 | 35155 ft | 469 kts | 109° |
| 2026-04-26 11:30 | 59.88500 | -141.98869 | 35155 ft | 469 kts | 109° |
| 2026-04-26 11:30 | 59.86319 | -141.84321 | 35136 ft | 469 kts | 110° |
| 2026-04-26 11:31 | 59.84440 | -141.71887 | 35125 ft | 469 kts | 110° |
| 2026-04-26 11:31 | 59.82554 | -141.59489 | 35125 ft | 468 kts | 110° |
| 2026-04-26 11:32 | 59.80654 | -141.47103 | 35126 ft | 469 kts | 110° |
| 2026-04-26 11:32 | 59.78743 | -141.34732 | 35128 ft | 469 kts | 110° |
| 2026-04-26 11:33 | 59.76822 | -141.22381 | 35131 ft | 468 kts | 110° |
| 2026-04-26 11:33 | 59.74892 | -141.10064 | 35133 ft | 467 kts | 110° |
| 2026-04-26 11:34 | 59.72955 | -140.97788 | 35136 ft | 466 kts | 111° |
| 2026-04-26 11:34 | 59.71012 | -140.85563 | 35139 ft | 465 kts | 111° |
| 2026-04-26 11:35 | 59.69063 | -140.73381 | 35142 ft | 464 kts | 111° |
| 2026-04-26 11:35 | 59.67422 | -140.63196 | 35145 ft | 463 kts | 111° |
| 2026-04-26 11:36 | 59.65127 | -140.49043 | 35148 ft | 462 kts | 111° |
| 2026-04-26 11:36 | 59.63490 | -140.39014 | 35150 ft | 461 kts | 112° |
| 2026-04-26 11:37 | 59.61513 | -140.26983 | 35153 ft | 460 kts | 112° |
| 2026-04-26 11:37 | 59.59527 | -140.14977 | 35155 ft | 460 kts | 112° |
| 2026-04-26 11:38 | 59.57532 | -140.02998 | 35157 ft | 460 kts | 112° |
| 2026-04-26 11:38 | 59.55526 | -139.91028 | 35158 ft | 459 kts | 112° |
| 2026-04-26 11:39 | 59.53513 | -139.79105 | 35159 ft | 458 kts | 112° |
| 2026-04-26 11:39 | 59.51483 | -139.67209 | 35157 ft | 457 kts | 115° |
| 2026-04-26 11:40 | 59.48689 | -139.56108 | 35163 ft | 452 kts | 123° |
| 2026-04-26 11:40 | 59.45679 | -139.45271 | 35160 ft | 451 kts | 123° |
| 2026-04-26 11:42 | 59.33567 | -139.02166 | 35158 ft | 449 kts | 124° |
| 2026-04-26 11:43 | 59.30538 | -138.91499 | 35158 ft | 448 kts | 124° |
| 2026-04-26 11:43 | 59.27500 | -138.80854 | 35158 ft | 448 kts | 124° |
| 2026-04-26 11:44 | 59.24458 | -138.70248 | 35156 ft | 447 kts | 124° |
| 2026-04-26 11:44 | 59.21393 | -138.59611 | 35155 ft | 446 kts | 124° |
| 2026-04-26 11:45 | 59.18341 | -138.49063 | 35154 ft | 446 kts | 124° |
| 2026-04-26 11:45 | 59.15286 | -138.38557 | 35155 ft | 445 kts | 124° |
| 2026-04-26 11:46 | 59.12225 | -138.28077 | 35154 ft | 445 kts | 124° |
| 2026-04-26 11:46 | 59.09155 | -138.17612 | 35151 ft | 445 kts | 125° |
| 2026-04-26 11:47 | 59.06081 | -138.07185 | 34907 ft | 445 kts | 125° |
| 2026-04-26 11:47 | 59.04555 | -138.02016 | 34361 ft | 437 kts | 125° |
| 2026-04-26 11:47 | 59.03053 | -137.96937 | 33858 ft | 430 kts | 126° |
| 2026-04-26 11:48 | 59.01571 | -137.91944 | 33369 ft | 423 kts | 126° |
| 2026-04-26 11:48 | 59.00110 | -137.87046 | 32890 ft | 417 kts | 126° |
| 2026-04-26 11:48 | 58.98668 | -137.82219 | 32419 ft | 411 kts | 127° |
| 2026-04-26 11:48 | 58.97235 | -137.77431 | 31955 ft | 415 kts | 127° |
| 2026-04-26 11:49 | 58.95751 | -137.72512 | 31473 ft | 430 kts | 126° |
| 2026-04-26 11:49 | 58.94263 | -137.67548 | 30974 ft | 422 kts | 127° |
| 2026-04-26 11:49 | 58.92812 | -137.62683 | 30504 ft | 414 kts | 127° |
| 2026-04-26 11:49 | 58.91378 | -137.57896 | 30040 ft | 407 kts | 127° |
| 2026-04-26 11:50 | 58.89963 | -137.53209 | 29569 ft | 400 kts | 127° |
| 2026-04-26 11:50 | 58.88542 | -137.48550 | 29120 ft | 410 kts | 127° |
| 2026-04-26 11:50 | 58.87099 | -137.43825 | 28648 ft | 405 kts | 126° |
| 2026-04-26 11:50 | 58.85688 | -137.39166 | 28186 ft | 398 kts | 126° |
| 2026-04-26 11:51 | 58.84300 | -137.34581 | 27738 ft | 392 kts | 126° |
| 2026-04-26 11:51 | 58.82925 | -137.30066 | 27299 ft | 394 kts | 126° |
| 2026-04-26 11:51 | 58.81504 | -137.25450 | 26838 ft | 400 kts | 126° |
| 2026-04-26 11:51 | 58.80098 | -137.20863 | 26385 ft | 394 kts | 126° |
| 2026-04-26 11:52 | 58.78701 | -137.16295 | 25933 ft | 388 kts | 125° |
| 2026-04-26 11:52 | 58.77797 | -137.13343 | 25641 ft | 384 kts | 125° |
| 2026-04-26 11:52 | 58.75971 | -137.07419 | 25057 ft | 393 kts | 125° |
| 2026-04-26 11:52 | 58.74574 | -137.02914 | 24607 ft | 389 kts | 125° |
| 2026-04-26 11:53 | 58.73203 | -136.98474 | 24166 ft | 383 kts | 124° |
| 2026-04-26 11:53 | 58.71853 | -136.94102 | 23732 ft | 377 kts | 124° |
| 2026-04-26 11:53 | 58.70520 | -136.89801 | 23305 ft | 372 kts | 124° |
| 2026-04-26 11:54 | 58.67812 | -136.81127 | 22444 ft | 380 kts | 124° |
| 2026-04-26 11:54 | 58.66466 | -136.76810 | 22014 ft | 373 kts | 124° |
| 2026-04-26 11:54 | 58.65144 | -136.72567 | 21591 ft | 368 kts | 124° |
| 2026-04-26 11:54 | 58.63838 | -136.68392 | 21175 ft | 362 kts | 124° |
| 2026-04-26 11:55 | 58.62540 | -136.64262 | 20769 ft | 367 kts | 124° |
| 2026-04-26 11:55 | 58.61201 | -136.60024 | 20342 ft | 370 kts | 124° |
| 2026-04-26 11:55 | 58.59883 | -136.55835 | 19923 ft | 364 kts | 124° |
| 2026-04-26 11:55 | 58.58589 | -136.51720 | 19512 ft | 357 kts | 124° |
| 2026-04-26 11:56 | 58.57317 | -136.47685 | 19109 ft | 351 kts | 124° |
| 2026-04-26 11:56 | 58.56047 | -136.43681 | 18714 ft | 360 kts | 124° |
| 2026-04-26 11:56 | 58.54738 | -136.39577 | 18298 ft | 359 kts | 124° |
| 2026-04-26 11:56 | 58.53456 | -136.35543 | 17893 ft | 351 kts | 124° |
| 2026-04-26 11:57 | 58.52321 | -136.31964 | 17536 ft | 345 kts | 124° |
| 2026-04-26 11:57 | 58.51086 | -136.28076 | 17146 ft | 341 kts | 124° |
| 2026-04-26 11:57 | 58.49819 | -136.24117 | 16749 ft | 352 kts | 124° |
| 2026-04-26 11:57 | 58.48552 | -136.20159 | 16350 ft | 345 kts | 124° |
| 2026-04-26 11:58 | 58.47317 | -136.16297 | 15961 ft | 337 kts | 124° |
| 2026-04-26 11:58 | 58.46104 | -136.12510 | 15584 ft | 337 kts | 124° |
| 2026-04-26 11:58 | 58.44854 | -136.08636 | 15192 ft | 344 kts | 124° |
| 2026-04-26 11:58 | 58.43616 | -136.04790 | 14765 ft | 336 kts | 124° |
| 2026-04-26 11:59 | 58.42403 | -136.01021 | 14325 ft | 329 kts | 124° |
| 2026-04-26 11:59 | 58.41200 | -135.97290 | 13934 ft | 326 kts | 124° |
| 2026-04-26 11:59 | 58.39987 | -135.93550 | 13551 ft | 333 kts | 124° |
| 2026-04-26 11:59 | 58.38769 | -135.89803 | 13169 ft | 331 kts | 124° |
| 2026-04-26 12:00 | 58.37563 | -135.86086 | 12792 ft | 329 kts | 124° |
| 2026-04-26 12:00 | 58.36363 | -135.82387 | 12417 ft | 327 kts | 124° |
| 2026-04-26 12:00 | 58.35168 | -135.78710 | 12044 ft | 326 kts | 124° |
| 2026-04-26 12:00 | 58.33976 | -135.75051 | 11672 ft | 323 kts | 124° |
| 2026-04-26 12:01 | 58.32794 | -135.71430 | 11303 ft | 322 kts | 124° |
| 2026-04-26 12:01 | 58.31613 | -135.67823 | 10935 ft | 321 kts | 124° |
| 2026-04-26 12:01 | 58.30435 | -135.64228 | 10568 ft | 320 kts | 123° |
| 2026-04-26 12:01 | 58.29281 | -135.60705 | 10405 ft | 305 kts | 123° |
| 2026-04-26 12:02 | 58.28191 | -135.57381 | 10280 ft | 288 kts | 123° |
| 2026-04-26 12:02 | 58.27501 | -135.55281 | 10200 ft | 279 kts | 123° |
| 2026-04-26 12:02 | 58.26140 | -135.51154 | 10041 ft | 273 kts | 123° |
| 2026-04-26 12:02 | 58.25130 | -135.48098 | 9765 ft | 276 kts | 123° |
| 2026-04-26 12:03 | 58.24091 | -135.44957 | 9166 ft | 283 kts | 122° |
| 2026-04-26 12:03 | 58.23058 | -135.41830 | 8632 ft | 278 kts | 122° |
| 2026-04-26 12:03 | 58.22028 | -135.38722 | 8152 ft | 277 kts | 122° |
| 2026-04-26 12:03 | 58.21031 | -135.35716 | 8060 ft | 262 kts | 122° |
| 2026-04-26 12:04 | 58.20068 | -135.32816 | 7960 ft | 258 kts | 122° |
| 2026-04-26 12:04 | 58.19113 | -135.29944 | 7854 ft | 256 kts | 122° |
| 2026-04-26 12:04 | 58.18257 | -135.27003 | 7741 ft | 254 kts | 106° |
| 2026-04-26 12:04 | 58.18213 | -135.23702 | 7570 ft | 254 kts | 78° |
| 2026-04-26 12:05 | 58.18764 | -135.20583 | 7306 ft | 247 kts | 64° |
| 2026-04-26 12:05 | 58.19546 | -135.17739 | 7033 ft | 241 kts | 61° |
| 2026-04-26 12:05 | 58.20272 | -135.15170 | 6788 ft | 235 kts | 62° |
| 2026-04-26 12:05 | 58.20980 | -135.12416 | 6537 ft | 229 kts | 65° |
| 2026-04-26 12:06 | 58.21625 | -135.09693 | 6294 ft | 223 kts | 66° |
| 2026-04-26 12:06 | 58.22350 | -135.07157 | 6074 ft | 215 kts | 50° |
| 2026-04-26 12:06 | 58.23469 | -135.05321 | 5873 ft | 215 kts | 28° |
| 2026-04-26 12:06 | 58.24915 | -135.04407 | 5672 ft | 226 kts | 11° |
| 2026-04-26 12:07 | 58.26524 | -135.03850 | 5381 ft | 235 kts | 9° |
| 2026-04-26 12:07 | 58.28114 | -135.03345 | 5111 ft | 229 kts | 9° |
| 2026-04-26 12:07 | 58.29683 | -135.02848 | 4857 ft | 229 kts | 9° |
| 2026-04-26 12:07 | 58.31243 | -135.02343 | 4607 ft | 227 kts | 9° |
| 2026-04-26 12:08 | 58.32796 | -135.01831 | 4359 ft | 225 kts | 9° |
| 2026-04-26 12:08 | 58.34297 | -135.01038 | 4123 ft | 224 kts | 29° |
| 2026-04-26 12:08 | 58.35376 | -134.99018 | 3891 ft | 217 kts | 62° |
| 2026-04-26 12:08 | 58.35695 | -134.96293 | 3722 ft | 207 kts | 86° |
| 2026-04-26 12:09 | 58.35727 | -134.93619 | 3505 ft | 200 kts | 89° |
| 2026-04-26 12:09 | 58.35724 | -134.91008 | 3251 ft | 194 kts | 89° |
| 2026-04-26 12:09 | 58.35722 | -134.89325 | 3097 ft | 188 kts | 89° |
| 2026-04-26 12:09 | 58.35725 | -134.86163 | 2825 ft | 175 kts | 88° |
| 2026-04-26 12:10 | 58.35735 | -134.83856 | 2624 ft | 174 kts | 88° |
| 2026-04-26 12:10 | 58.35746 | -134.82322 | 2475 ft | 175 kts | 88° |
| 2026-04-26 12:10 | 58.35789 | -134.80013 | 2296 ft | 174 kts | 85° |
| 2026-04-26 12:10 | 58.35879 | -134.77731 | 2117 ft | 172 kts | 84° |
| 2026-04-26 12:11 | 58.35969 | -134.75472 | 1908 ft | 168 kts | 88° |
| 2026-04-26 12:11 | 58.35951 | -134.73323 | 1735 ft | 159 kts | 91° |
| 2026-04-26 12:11 | 58.35930 | -134.71244 | 1462 ft | 155 kts | 90° |
| 2026-04-26 12:11 | 58.35909 | -134.69176 | 1218 ft | 154 kts | 91° |
| 2026-04-26 12:12 | 58.35902 | -134.67126 | 1019 ft | 155 kts | 90° |
| 2026-04-26 12:12 | 58.35920 | -134.65089 | 773 ft | 152 kts | 89° |
| 2026-04-26 12:12 | 58.35945 | -134.63117 | 530 ft | 147 kts | 89° |
| 2026-04-26 12:12 | 58.35953 | -134.61830 | 352 ft | 145 kts | 91° |
| 2026-04-26 12:13 | 58.35742 | -134.59395 | 39 ft | 131 kts | 105° |
| 2026-04-26 12:13 | 58.35540 | -134.57935 | 30 ft | 89 kts | 104° |
| 2026-04-26 12:13 | 58.35416 | -134.57042 | 30 ft | 43 kts | 106° |
| 2026-04-26 12:13 | 58.35382 | -134.56805 | 30 ft | 12 kts | 104° |
| 2026-04-26 12:14 | 58.35409 | -134.56696 | 30 ft | 10 kts | 27° |
| 2026-04-26 12:14 | 58.35433 | -134.56679 | 30 ft | 0 kts | 17° |
| 2026-04-26 12:16 | 58.35464 | -134.56682 | 30 ft | 12 kts | 333° |
| 2026-04-26 12:16 | 58.35504 | -134.56844 | 30 ft | 16 kts | 287° |
| 2026-04-26 12:16 | 58.35538 | -134.57068 | 30 ft | 18 kts | 285° |
| 2026-04-26 12:17 | 58.35567 | -134.57292 | 30 ft | 18 kts | 283° |
| 2026-04-26 12:17 | 58.35595 | -134.57510 | 30 ft | 16 kts | 285° |
| 2026-04-26 12:17 | 58.35628 | -134.57741 | 30 ft | 20 kts | 285° |
| 2026-04-26 12:17 | 58.35667 | -134.58010 | 30 ft | 22 kts | 285° |
| 2026-04-26 12:18 | 58.35708 | -134.58302 | 30 ft | 24 kts | 284° |
| 2026-04-26 12:18 | 58.35748 | -134.58542 | 30 ft | 17 kts | 306° |
| 2026-04-26 12:18 | 58.35830 | -134.58611 | 30 ft | 11 kts | 359° |
| 2026-04-26 12:18 | 58.35881 | -134.58561 | 30 ft | 7 kts | 66° |
| 2026-04-26 12:19 | 58.35880 | -134.58490 | 30 ft | 4 kts | 101° |
| 2026-04-26 12:19 | 58.35879 | -134.58480 | 30 ft | 0 kts | 101° |